createdAt,value
2018-10-01T00:04:49.133Z,99134.14
2018-10-01T00:10:53.762Z,99147.90
2018-10-01T00:16:58.400Z,99149.55
2018-10-01T00:23:02.993Z,99136.14
2018-10-01T00:29:07.692Z,99130.23
2018-10-01T00:35:12.563Z,99123.41
2018-10-01T00:41:17.242Z,99098.45
2018-10-01T00:47:21.856Z,99103.11
2018-10-01T00:53:26.462Z,99086.47
2018-10-01T00:59:31.092Z,99096.95
2018-10-01T01:05:35.755Z,99106.23
2018-10-01T01:11:40.413Z,99114.88
2018-10-01T01:17:45.078Z,99116.06
2018-10-01T01:23:49.648Z,99115.05
2018-10-01T01:29:54.270Z,99119.98
2018-10-01T01:35:58.920Z,99114.63
2018-10-01T01:42:03.515Z,99113.18
2018-10-01T01:48:08.138Z,99113.13
2018-10-01T01:54:13.576Z,99102.46
2018-10-01T02:00:18.561Z,99092.78
2018-10-01T02:06:23.256Z,99087.48
2018-10-01T02:12:27.864Z,99080.98
2018-10-01T02:18:32.451Z,99072.46
2018-10-01T02:24:37.094Z,99074.25
2018-10-01T02:30:42.066Z,99071.08
2018-10-01T02:36:46.881Z,99072.67
2018-10-01T02:42:51.790Z,99071.02
2018-10-01T02:48:56.739Z,99061.58
2018-10-01T02:55:01.675Z,99054.63
2018-10-01T03:01:06.466Z,99057.11
2018-10-01T03:07:11.064Z,99065.22
2018-10-01T03:13:15.755Z,99044.12
2018-10-01T03:19:20.377Z,99043.92
2018-10-01T03:25:24.960Z,99050.48
2018-10-01T03:31:29.562Z,99061.27
2018-10-01T03:37:34.177Z,99065.44
2018-10-01T03:43:38.823Z,99062.48
2018-10-01T03:49:43.495Z,99060.64
2018-10-01T03:55:48.143Z,99057.59
2018-10-01T04:01:52.759Z,99071.78
2018-10-01T04:07:57.342Z,99056.42
2018-10-01T04:14:01.962Z,99049.31
2018-10-01T04:20:06.664Z,99053.89
2018-10-01T04:26:11.256Z,99054.11
2018-10-01T04:32:15.888Z,99069.98
2018-10-01T04:38:20.877Z,99063.42
2018-10-01T04:44:25.516Z,99063.07
2018-10-01T04:50:30.240Z,99078.73
2018-10-01T04:56:35.172Z,99074.27
2018-10-01T05:02:40.161Z,99086.17
2018-10-01T05:08:44.792Z,99097.01
2018-10-01T05:14:49.483Z,99094.95
2018-10-01T05:20:54.137Z,99099.41
2018-10-01T05:26:58.753Z,99097.10
2018-10-01T05:33:03.405Z,99099.63
2018-10-01T05:39:11.664Z,99107.84
2018-10-01T05:45:16.365Z,99107.13
2018-10-01T05:51:20.945Z,99118.17
2018-10-01T05:57:25.583Z,99117.65
2018-10-01T06:03:30.237Z,99118.47
2018-10-01T06:09:34.860Z,99127.26
2018-10-01T06:15:39.470Z,99135.88
2018-10-01T06:21:44.150Z,99147.04
2018-10-01T06:27:48.758Z,99143.00
2018-10-01T06:33:53.404Z,99149.95
2018-10-01T06:39:58.028Z,99156.42
2018-10-01T06:46:02.671Z,99158.69
2018-10-01T06:52:07.485Z,99168.95
2018-10-01T06:58:12.124Z,99173.12
2018-10-01T07:04:16.756Z,99181.59
2018-10-01T07:10:21.335Z,99186.87
2018-10-01T07:16:26.086Z,99195.23
2018-10-01T07:22:30.730Z,99198.72
2018-10-01T07:28:35.432Z,99216.01
2018-10-01T07:34:40.322Z,99212.18
2018-10-01T07:40:44.938Z,99214.27
2018-10-01T07:46:49.573Z,99214.45
2018-10-01T07:52:54.289Z,99220.33
2018-10-01T07:58:58.913Z,99221.70
2018-10-01T08:05:03.597Z,99235.23
2018-10-01T08:11:08.568Z,99246.12
2018-10-01T08:17:13.235Z,99244.03
2018-10-01T08:23:17.870Z,99245.80
2018-10-01T08:29:22.601Z,99253.34
2018-10-01T08:35:27.169Z,99260.83
2018-10-01T08:41:31.770Z,99261.65
2018-10-01T08:47:36.517Z,99264.52
2018-10-01T08:54:01.580Z,99271.38
2018-10-01T09:00:06.494Z,99270.54
2018-10-01T09:06:11.139Z,99274.50
2018-10-01T09:12:16.381Z,99274.75
2018-10-01T09:18:21.038Z,99267.24
2018-10-01T09:24:25.678Z,99259.98
2018-10-01T09:30:30.749Z,99272.01
2018-10-01T09:36:35.421Z,99276.92
2018-10-01T09:42:40.125Z,99283.87
2018-10-01T09:48:45.117Z,99278.10
2018-10-01T09:54:49.763Z,99280.88
2018-10-01T10:00:59.551Z,99286.52
2018-10-01T10:07:04.174Z,99271.38
2018-10-01T10:13:08.830Z,99279.28
2018-10-01T10:19:13.450Z,99270.05
2018-10-01T10:25:18.089Z,99263.30
2018-10-01T10:31:22.741Z,99268.03
2018-10-01T10:37:27.346Z,99280.22
2018-10-01T10:43:31.929Z,99284.59
2018-10-01T10:49:36.580Z,99287.15
2018-10-01T10:55:41.609Z,99282.33
2018-10-01T11:01:46.244Z,99294.20
2018-10-01T11:07:50.856Z,99289.17
2018-10-01T11:13:55.567Z,99287.08
2018-10-01T11:20:00.340Z,99285.34
2018-10-01T11:26:04.840Z,99278.58
2018-10-01T11:32:09.547Z,99277.79
2018-10-01T11:38:14.169Z,99282.70
2018-10-01T11:44:18.755Z,99277.16
2018-10-01T11:50:23.338Z,99281.24
2018-10-01T11:56:28.350Z,99291.98
2018-10-01T12:02:32.912Z,99294.70
2018-10-01T12:08:37.548Z,99282.48
2018-10-01T12:14:42.175Z,99277.71
2018-10-01T12:20:46.735Z,99262.92
2018-10-01T12:26:51.395Z,99256.73
2018-10-01T12:32:56.364Z,99256.03
2018-10-01T12:39:01.036Z,99242.14
2018-10-01T12:45:06.170Z,99233.99
2018-10-01T12:51:10.753Z,99244.55
2018-10-01T12:57:15.433Z,99262.50
2018-10-01T13:03:20.436Z,99260.33
2018-10-01T13:09:25.052Z,99256.70
2018-10-01T13:15:30.024Z,99244.60
2018-10-01T13:21:34.826Z,99236.88
2018-10-01T13:27:39.499Z,99270.22
2018-10-01T13:33:44.103Z,99317.05
2018-10-01T13:39:48.689Z,99344.09
2018-10-01T13:45:53.336Z,99347.89
2018-10-01T13:51:58.027Z,99362.04
2018-10-01T13:58:02.712Z,99385.72
2018-10-01T14:04:07.332Z,99384.69
2018-10-01T14:10:12.059Z,99387.34
2018-10-01T14:16:16.906Z,99386.75
2018-10-01T14:22:21.562Z,99390.80
2018-10-01T14:28:26.463Z,99390.31
2018-10-01T14:34:31.421Z,99409.03
2018-10-01T14:40:36.592Z,99415.84
2018-10-01T14:46:41.297Z,99420.77
2018-10-01T14:52:45.978Z,99430.88
2018-10-01T14:58:50.658Z,99429.50
2018-10-01T15:04:55.270Z,99437.70
2018-10-01T15:11:00.237Z,99443.69
2018-10-01T15:17:05.230Z,99441.09
2018-10-01T15:23:09.883Z,99450.27
2018-10-01T15:29:14.732Z,99450.34
2018-10-01T15:35:19.435Z,99461.52
2018-10-01T15:41:24.010Z,99458.20
2018-10-01T15:47:28.672Z,99461.38
2018-10-01T15:53:33.302Z,99455.91
2018-10-01T15:59:37.973Z,99473.44
2018-10-01T16:05:42.585Z,99486.80
2018-10-01T16:11:47.219Z,99484.09
2018-10-01T16:17:51.877Z,99500.73
2018-10-01T16:23:56.563Z,99515.78
2018-10-01T16:30:01.678Z,99533.08
2018-10-01T16:36:06.395Z,99517.91
2018-10-01T16:42:11.116Z,99508.66
2018-10-01T16:48:16.280Z,99512.25
2018-10-01T16:54:20.922Z,99523.09
2018-10-01T17:00:25.538Z,99526.72
2018-10-01T17:06:31.052Z,99550.90
2018-10-01T17:12:36.120Z,99555.75
2018-10-01T17:18:41.252Z,99567.72
2018-10-01T17:24:45.894Z,99570.87
2018-10-01T17:30:50.627Z,99583.80
2018-10-01T17:36:55.579Z,99600.27
2018-10-01T17:43:00.535Z,99602.09
2018-10-01T17:49:05.424Z,99615.13
2018-10-01T17:55:10.008Z,99594.95
2018-10-01T18:01:14.702Z,99612.91
2018-10-01T18:07:19.306Z,99617.98
2018-10-01T18:13:24.068Z,99617.08
2018-10-01T18:19:29.256Z,99626.42
2018-10-01T18:25:34.108Z,99633.66
2018-10-01T18:31:38.859Z,99638.98
2018-10-01T18:37:43.775Z,99642.84
2018-10-01T18:43:48.748Z,99663.51
2018-10-01T18:49:53.606Z,99665.23
2018-10-01T18:55:58.239Z,99672.09
2018-10-01T19:02:02.837Z,99681.06
2018-10-01T19:08:07.479Z,99678.20
2018-10-01T19:14:12.177Z,99673.87
2018-10-01T19:20:16.877Z,99678.20
2018-10-01T19:26:21.510Z,99688.02
2018-10-01T19:32:26.187Z,99685.84
2018-10-01T19:38:31.166Z,99685.32
2018-10-01T19:44:35.770Z,99694.98
2018-10-01T19:50:40.445Z,99699.33
2018-10-01T19:56:45.204Z,99706.82
2018-10-01T20:02:50.716Z,99711.20
2018-10-01T20:08:55.761Z,99712.36
2018-10-01T20:15:00.629Z,99721.17
2018-10-01T20:21:05.914Z,99718.00
2018-10-01T20:27:11.379Z,99731.02
2018-10-01T20:33:16.322Z,99739.67
2018-10-01T20:39:21.421Z,99738.02
2018-10-01T20:45:26.502Z,99734.97
2018-10-01T20:51:31.490Z,99729.32
2018-10-01T20:57:36.416Z,99728.39
2018-10-01T21:03:41.334Z,99730.86
2018-10-01T21:09:47.073Z,99732.70
2018-10-01T21:15:52.072Z,99734.23
2018-10-01T21:21:57.031Z,99726.91
2018-10-01T21:28:01.993Z,99727.88
2018-10-01T21:34:07.112Z,99740.91
2018-10-01T21:40:12.943Z,99730.59
2018-10-01T21:46:17.599Z,99729.44
2018-10-01T21:52:22.279Z,99735.75
2018-10-01T21:58:28.398Z,99739.78
2018-10-01T22:04:33.332Z,99740.94
2018-10-01T22:10:38.249Z,99739.28
2018-10-01T22:16:42.912Z,99749.27
2018-10-01T22:22:47.807Z,99753.77
2018-10-01T22:28:52.410Z,99746.11
2018-10-01T22:34:57.025Z,99746.43
2018-10-01T22:41:01.712Z,99748.27
2018-10-01T22:47:06.658Z,99744.11
2018-10-01T22:53:11.338Z,99749.75
2018-10-01T22:59:15.964Z,99741.25
2018-10-01T23:05:20.568Z,99752.60
2018-10-01T23:11:25.261Z,99757.91
2018-10-01T23:17:29.864Z,99751.88
2018-10-01T23:23:34.533Z,99763.67
2018-10-01T23:29:39.135Z,99767.33
2018-10-01T23:35:43.796Z,99764.68
2018-10-01T23:41:49.025Z,99767.61
2018-10-01T23:47:53.988Z,99762.09
2018-10-01T23:53:58.917Z,99765.05
